sensor_id;sensor_type;location;lat;lon;timestamp;temperature;humidity
9875;DHT22;4976;46.786;7.632;2023-04-01T06:43:17;8.40;99.90
9875;DHT22;4976;46.786;7.632;2023-04-01T06:46:43;8.30;99.90
9875;DHT22;4976;46.786;7.632;2023-04-01T06:49:29;8.30;99.90
9875;DHT22;4976;46.786;7.632;2023-04-01T06:52:05;8.30;99.90
9875;DHT22;4976;46.786;7.632;2023-04-01T06:54:40;8.40;99.90
9875;DHT22;4976;46.786;7.632;2023-04-01T06:57:19;8.20;99.90
9875;DHT22;4976;46.786;7.632;2023-04-01T06:59:49;8.10;99.90
9875;DHT22;4976;46.786;7.632;2023-04-01T07:02:28;8.20;99.90
9875;DHT22;4976;46.786;7.632;2023-04-01T07:04:59;8.30;99.90
9875;DHT22;4976;46.786;7.632;2023-04-01T07:07:33;8.50;99.90
9875;DHT22;4976;46.786;7.632;2023-04-01T07:10:05;8.70;99.90
9875;DHT22;4976;46.786;7.632;2023-04-01T07:12:40;8.60;1.00
9875;DHT22;4976;46.786;7.632;2023-04-01T07:15:18;8.80;1.00
9875;DHT22;4976;46.786;7.632;2023-04-01T07:17:47;8.90;1.00
9875;DHT22;4976;46.786;7.632;2023-04-01T07:20:20;9.00;1.00
9875;DHT22;4976;46.786;7.632;2023-04-01T07:22:52;9.00;1.00
9875;DHT22;4976;46.786;7.632;2023-04-01T07:25:24;8.90;1.00
9875;DHT22;4976;46.786;7.632;2023-04-01T07:27:53;8.90;1.00
9875;DHT22;4976;46.786;7.632;2023-04-01T07:30:24;8.90;48.10
9875;DHT22;4976;46.786;7.632;2023-04-01T07:32:59;8.90;1.00
9875;DHT22;4976;46.786;7.632;2023-04-01T07:35:36;8.90;15.90
9875;DHT22;4976;46.786;7.632;2023-04-01T07:38:18;8.80;24.80
9875;DHT22;4976;46.786;7.632;2023-04-01T07:40:54;8.80;36.40
9875;DHT22;4976;46.786;7.632;2023-04-01T07:43:47;8.80;42.40
9875;DHT22;4976;46.786;7.632;2023-04-01T07:46:31;8.60;99.90
9875;DHT22;4976;46.786;7.632;2023-04-01T07:49:08;8.70;99.90
9875;DHT22;4976;46.786;7.632;2023-04-01T07:51:41;8.80;99.90
9875;DHT22;4976;46.786;7.632;2023-04-01T07:54:16;8.70;99.90
9875;DHT22;4976;46.786;7.632;2023-04-01T07:56:49;8.80;99.90
9875;DHT22;4976;46.786;7.632;2023-04-01T07:59:22;8.80;93.40
9875;DHT22;4976;46.786;7.632;2023-04-01T08:01:56;8.70;73.10
9875;DHT22;4976;46.786;7.632;2023-04-01T08:04:36;8.70;99.90
9875;DHT22;4976;46.786;7.632;2023-04-01T08:07:13;8.70;99.90
9875;DHT22;4976;46.786;7.632;2023-04-01T08:09:48;8.80;99.90
9875;DHT22;4976;46.786;7.632;2023-04-01T08:12:29;8.70;99.90
9875;DHT22;4976;46.786;7.632;2023-04-01T08:15:10;8.80;99.90
9875;DHT22;4976;46.786;7.632;2023-04-01T08:17:47;8.80;99.90
9875;DHT22;4976;46.786;7.632;2023-04-01T08:20:31;8.90;99.90
9875;DHT22;4976;46.786;7.632;2023-04-01T08:23:03;9.00;63.30
9875;DHT22;4976;46.786;7.632;2023-04-01T08:25:34;8.90;94.30
9875;DHT22;4976;46.786;7.632;2023-04-01T08:28:11;9.10;99.90
9875;DHT22;4976;46.786;7.632;2023-04-01T08:30:43;9.10;67.90
9875;DHT22;4976;46.786;7.632;2023-04-01T08:33:17;9.20;83.10
9875;DHT22;4976;46.786;7.632;2023-04-01T08:35:52;9.20;16.10
9875;DHT22;4976;46.786;7.632;2023-04-01T08:38:24;9.20;1.00
9875;DHT22;4976;46.786;7.632;2023-04-01T08:41:01;9.20;94.80
9875;DHT22;4976;46.786;7.632;2023-04-01T08:47:07;9.20;68.30
9875;DHT22;4976;46.786;7.632;2023-04-01T08:50:04;9.20;99.90
9875;DHT22;4976;46.786;7.632;2023-04-01T08:52:37;9.20;87.80
9875;DHT22;4976;46.786;7.632;2023-04-01T08:55:22;9.30;99.90
9875;DHT22;4976;46.786;7.632;2023-04-01T09:00:45;9.50;31.70
9875;DHT22;4976;46.786;7.632;2023-04-01T09:03:23;9.60;1.00
9875;DHT22;4976;46.786;7.632;2023-04-01T09:06:26;9.60;1.00
9875;DHT22;4976;46.786;7.632;2023-04-01T09:09:19;9.50;1.00
9875;DHT22;4976;46.786;7.632;2023-04-01T09:12:07;9.50;1.00
9875;DHT22;4976;46.786;7.632;2023-04-01T09:20:42;9.60;1.00
9875;DHT22;4976;46.786;7.632;2023-04-01T09:23:29;9.70;1.00
9875;DHT22;4976;46.786;7.632;2023-04-01T09:26:13;9.70;1.00
9875;DHT22;4976;46.786;7.632;2023-04-01T09:28:49;9.60;1.00
9875;DHT22;4976;46.786;7.632;2023-04-01T09:31:44;9.80;1.00
9875;DHT22;4976;46.786;7.632;2023-04-01T09:34:30;9.70;1.00
9875;DHT22;4976;46.786;7.632;2023-04-01T09:37:17;9.90;1.00
9875;DHT22;4976;46.786;7.632;2023-04-01T09:42:49;9.90;1.00
9875;DHT22;4976;46.786;7.632;2023-04-01T09:45:31;10.00;1.00
9875;DHT22;4976;46.786;7.632;2023-04-01T09:48:13;10.00;1.00
9875;DHT22;4976;46.786;7.632;2023-04-01T09:50:47;10.20;1.00
9875;DHT22;4976;46.786;7.632;2023-04-01T09:53:34;10.10;1.00
9875;DHT22;4976;46.786;7.632;2023-04-01T09:56:33;10.20;1.00
9875;DHT22;4976;46.786;7.632;2023-04-01T10:03:05;10.20;1.00
9875;DHT22;4976;46.786;7.632;2023-04-01T10:06:03;10.20;1.00
9875;DHT22;4976;46.786;7.632;2023-04-01T10:08:49;10.20;1.00
9875;DHT22;4976;46.786;7.632;2023-04-01T10:11:53;10.20;1.00
9875;DHT22;4976;46.786;7.632;2023-04-01T10:14:44;10.30;1.00
9875;DHT22;4976;46.786;7.632;2023-04-01T10:20:52;11.00;1.00
9875;DHT22;4976;46.786;7.632;2023-04-01T10:23:52;11.50;1.00
9875;DHT22;4976;46.786;7.632;2023-04-01T10:30:07;11.90;1.00
9875;DHT22;4976;46.786;7.632;2023-04-01T10:33:23;11.80;1.00
9875;DHT22;4976;46.786;7.632;2023-04-01T10:36:28;11.80;1.00
9875;DHT22;4976;46.786;7.632;2023-04-01T10:45:52;12.30;1.00
9875;DHT22;4976;46.786;7.632;2023-04-01T10:52:22;12.40;1.00
9875;DHT22;4976;46.786;7.632;2023-04-01T10:55:10;12.70;1.00
9875;DHT22;4976;46.786;7.632;2023-04-01T10:58:03;12.90;1.00
9875;DHT22;4976;46.786;7.632;2023-04-01T11:07:30;14.00;1.00
9875;DHT22;4976;46.786;7.632;2023-04-01T11:22:56;13.90;99.90
9875;DHT22;4976;46.786;7.632;2023-04-01T11:25:47;14.10;99.90
9875;DHT22;4976;46.786;7.632;2023-04-01T11:28:44;13.90;99.90
9875;DHT22;4976;46.786;7.632;2023-04-01T11:31:40;13.70;99.90
9875;DHT22;4976;46.786;7.632;2023-04-01T11:34:20;13.10;99.90
9875;DHT22;4976;46.786;7.632;2023-04-01T11:37:03;12.90;99.90
9875;DHT22;4976;46.786;7.632;2023-04-01T11:39:38;13.10;99.90
9875;DHT22;4976;46.786;7.632;2023-04-01T11:42:17;13.30;99.90
9875;DHT22;4976;46.786;7.632;2023-04-01T11:44:55;13.60;99.90
9875;DHT22;4976;46.786;7.632;2023-04-01T11:50:30;13.40;99.90
9875;DHT22;4976;46.786;7.632;2023-04-01T11:53:23;13.50;99.90
9875;DHT22;4976;46.786;7.632;2023-04-01T11:56:02;13.80;99.90
9875;DHT22;4976;46.786;7.632;2023-04-01T11:59:03;13.70;99.90
9875;DHT22;4976;46.786;7.632;2023-04-01T12:01:41;13.50;99.90
9875;DHT22;4976;46.786;7.632;2023-04-01T12:04:34;13.60;99.90
9875;DHT22;4976;46.786;7.632;2023-04-01T12:07:14;13.20;99.90
9875;DHT22;4976;46.786;7.632;2023-04-01T12:09:49;13.20;99.90
9875;DHT22;4976;46.786;7.632;2023-04-01T12:12:25;13.40;99.90
9875;DHT22;4976;46.786;7.632;2023-04-01T12:15:02;13.30;99.90
9875;DHT22;4976;46.786;7.632;2023-04-01T12:17:38;13.50;99.90
9875;DHT22;4976;46.786;7.632;2023-04-01T12:20:30;13.80;99.90
9875;DHT22;4976;46.786;7.632;2023-04-01T12:23:13;14.00;99.90
9875;DHT22;4976;46.786;7.632;2023-04-01T12:28:59;14.20;99.90
9875;DHT22;4976;46.786;7.632;2023-04-01T12:31:37;14.80;99.90
9875;DHT22;4976;46.786;7.632;2023-04-01T12:37:28;15.30;99.90
9875;DHT22;4976;46.786;7.632;2023-04-01T12:40:20;14.80;99.90
9875;DHT22;4976;46.786;7.632;2023-04-01T12:43:20;15.10;99.90
9875;DHT22;4976;46.786;7.632;2023-04-01T12:46:00;15.10;99.90
9875;DHT22;4976;46.786;7.632;2023-04-01T12:49:04;15.10;99.90
9875;DHT22;4976;46.786;7.632;2023-04-01T12:52:00;15.10;99.90
9875;DHT22;4976;46.786;7.632;2023-04-01T12:57:50;14.00;99.90
9875;DHT22;4976;46.786;7.632;2023-04-01T13:00:35;14.10;99.90
9875;DHT22;4976;46.786;7.632;2023-04-01T13:03:33;14.30;99.90
9875;DHT22;4976;46.786;7.632;2023-04-01T13:09:09;14.60;99.90
9875;DHT22;4976;46.786;7.632;2023-04-01T13:11:56;14.60;99.90
9875;DHT22;4976;46.786;7.632;2023-04-01T13:14:57;14.50;99.90
9875;DHT22;4976;46.786;7.632;2023-04-01T13:17:32;14.50;99.90
9875;DHT22;4976;46.786;7.632;2023-04-01T13:20:25;14.00;99.90
9875;DHT22;4976;46.786;7.632;2023-04-01T13:23:05;13.80;99.90
9875;DHT22;4976;46.786;7.632;2023-04-01T13:25:40;13.80;99.90
9875;DHT22;4976;46.786;7.632;2023-04-01T13:28:20;13.50;99.90
9875;DHT22;4976;46.786;7.632;2023-04-01T13:30:55;13.40;99.90
9875;DHT22;4976;46.786;7.632;2023-04-01T13:33:30;13.10;99.90
9875;DHT22;4976;46.786;7.632;2023-04-01T13:36:08;13.70;99.90
9875;DHT22;4976;46.786;7.632;2023-04-01T13:38:54;14.10;99.90
9875;DHT22;4976;46.786;7.632;2023-04-01T13:41:35;14.40;99.90
9875;DHT22;4976;46.786;7.632;2023-04-01T13:44:14;14.50;99.90
9875;DHT22;4976;46.786;7.632;2023-04-01T13:47:12;14.30;99.90
9875;DHT22;4976;46.786;7.632;2023-04-01T13:50:16;14.20;99.90
9875;DHT22;4976;46.786;7.632;2023-04-01T13:52:59;14.60;99.90
9875;DHT22;4976;46.786;7.632;2023-04-01T13:55:55;14.80;99.90
9875;DHT22;4976;46.786;7.632;2023-04-01T13:58:58;14.90;99.90
9875;DHT22;4976;46.786;7.632;2023-04-01T14:01:43;14.30;99.90
9875;DHT22;4976;46.786;7.632;2023-04-01T14:04:40;14.30;99.90
9875;DHT22;4976;46.786;7.632;2023-04-01T14:07:38;14.50;99.90
9875;DHT22;4976;46.786;7.632;2023-04-01T14:10:18;14.60;99.90
9875;DHT22;4976;46.786;7.632;2023-04-01T14:12:51;14.70;99.90
9875;DHT22;4976;46.786;7.632;2023-04-01T14:15:38;14.40;99.90
9875;DHT22;4976;46.786;7.632;2023-04-01T14:18:36;14.20;99.90
9875;DHT22;4976;46.786;7.632;2023-04-01T14:21:17;14.50;99.90
9875;DHT22;4976;46.786;7.632;2023-04-01T14:23:58;14.80;99.90
9875;DHT22;4976;46.786;7.632;2023-04-01T14:26:41;15.10;99.90
9875;DHT22;4976;46.786;7.632;2023-04-01T14:29:20;15.00;99.90
9875;DHT22;4976;46.786;7.632;2023-04-01T14:31:59;14.90;99.90
9875;DHT22;4976;46.786;7.632;2023-04-01T14:34:44;15.20;99.90
9875;DHT22;4976;46.786;7.632;2023-04-01T14:37:27;15.30;99.90
9875;DHT22;4976;46.786;7.632;2023-04-01T14:40:20;15.00;99.90
9875;DHT22;4976;46.786;7.632;2023-04-01T14:48:52;13.40;99.90
9875;DHT22;4976;46.786;7.632;2023-04-01T14:51:28;13.50;99.90
9875;DHT22;4976;46.786;7.632;2023-04-01T14:54:02;13.40;99.90
9875;DHT22;4976;46.786;7.632;2023-04-01T14:56:39;13.40;99.90
9875;DHT22;4976;46.786;7.632;2023-04-01T14:59:10;13.20;99.90
9875;DHT22;4976;46.786;7.632;2023-04-01T15:01:47;13.10;99.90
9875;DHT22;4976;46.786;7.632;2023-04-01T15:04:47;12.80;99.90
9875;DHT22;4976;46.786;7.632;2023-04-01T15:07:43;12.90;99.90
9875;DHT22;4976;46.786;7.632;2023-04-01T15:10:23;13.00;99.90
9875;DHT22;4976;46.786;7.632;2023-04-01T15:12:58;13.20;99.90
9875;DHT22;4976;46.786;7.632;2023-04-01T15:15:35;13.40;99.90
9875;DHT22;4976;46.786;7.632;2023-04-01T15:18:09;13.70;99.90
9875;DHT22;4976;46.786;7.632;2023-04-01T15:20:57;13.80;99.90
9875;DHT22;4976;46.786;7.632;2023-04-01T15:23:45;13.80;99.90
9875;DHT22;4976;46.786;7.632;2023-04-01T15:26:31;13.80;99.90
9875;DHT22;4976;46.786;7.632;2023-04-01T15:29:23;13.90;99.90
9875;DHT22;4976;46.786;7.632;2023-04-01T15:31:55;13.80;99.90
9875;DHT22;4976;46.786;7.632;2023-04-01T15:34:32;13.60;99.90
9875;DHT22;4976;46.786;7.632;2023-04-01T15:37:11;13.00;99.90
9875;DHT22;4976;46.786;7.632;2023-04-01T15:39:54;12.80;99.90
9875;DHT22;4976;46.786;7.632;2023-04-01T15:42:36;12.70;99.90
9875;DHT22;4976;46.786;7.632;2023-04-01T15:45:16;12.60;99.90
9875;DHT22;4976;46.786;7.632;2023-04-01T15:47:55;12.90;99.90
9875;DHT22;4976;46.786;7.632;2023-04-01T15:53:42;13.30;99.90
9875;DHT22;4976;46.786;7.632;2023-04-01T15:56:24;13.60;99.90
9875;DHT22;4976;46.786;7.632;2023-04-01T15:59:02;13.80;99.90
9875;DHT22;4976;46.786;7.632;2023-04-01T16:01:39;14.10;99.90
9875;DHT22;4976;46.786;7.632;2023-04-01T16:04:38;13.90;99.90
9875;DHT22;4976;46.786;7.632;2023-04-01T16:07:11;13.50;99.90
9875;DHT22;4976;46.786;7.632;2023-04-01T16:10:16;13.30;99.90
9875;DHT22;4976;46.786;7.632;2023-04-01T16:12:54;12.90;99.90
9875;DHT22;4976;46.786;7.632;2023-04-01T16:15:29;12.50;99.90
9875;DHT22;4976;46.786;7.632;2023-04-01T16:20:59;12.30;99.90
9875;DHT22;4976;46.786;7.632;2023-04-01T16:23:36;12.10;99.90
9875;DHT22;4976;46.786;7.632;2023-04-01T16:26:08;11.90;99.90
9875;DHT22;4976;46.786;7.632;2023-04-01T16:28:53;11.70;99.90
9875;DHT22;4976;46.786;7.632;2023-04-01T16:34:16;11.50;99.90
9875;DHT22;4976;46.786;7.632;2023-04-01T16:36:47;11.60;99.90
9875;DHT22;4976;46.786;7.632;2023-04-01T16:39:27;11.80;99.90
9875;DHT22;4976;46.786;7.632;2023-04-01T16:42:13;12.00;99.90
9875;DHT22;4976;46.786;7.632;2023-04-01T16:44:50;12.10;99.90
9875;DHT22;4976;46.786;7.632;2023-04-01T16:47:21;12.00;99.90
9875;DHT22;4976;46.786;7.632;2023-04-01T16:49:52;11.80;99.90
9875;DHT22;4976;46.786;7.632;2023-04-01T16:52:34;11.50;99.90
9875;DHT22;4976;46.786;7.632;2023-04-01T16:55:12;11.40;99.90
9875;DHT22;4976;46.786;7.632;2023-04-01T16:57:46;11.40;99.90
9875;DHT22;4976;46.786;7.632;2023-04-01T17:00:24;11.30;1.00
9875;DHT22;4976;46.786;7.632;2023-04-01T17:02:58;11.10;1.00
9875;DHT22;4976;46.786;7.632;2023-04-01T17:05:49;10.90;1.00
9875;DHT22;4976;46.786;7.632;2023-04-01T17:08:29;10.70;1.00
9875;DHT22;4976;46.786;7.632;2023-04-01T17:11:05;10.60;1.00
9875;DHT22;4976;46.786;7.632;2023-04-01T17:13:36;10.40;1.00
9875;DHT22;4976;46.786;7.632;2023-04-01T17:16:29;10.40;1.00
9875;DHT22;4976;46.786;7.632;2023-04-01T17:19:12;10.40;1.00
9875;DHT22;4976;46.786;7.632;2023-04-01T17:21:49;10.30;1.00
9875;DHT22;4976;46.786;7.632;2023-04-01T17:24:36;10.30;1.00
9875;DHT22;4976;46.786;7.632;2023-04-01T17:27:16;10.30;1.00
9875;DHT22;4976;46.786;7.632;2023-04-01T17:30:09;10.10;1.00
9875;DHT22;4976;46.786;7.632;2023-04-01T17:32:51;10.00;1.00
9875;DHT22;4976;46.786;7.632;2023-04-01T17:35:26;9.90;1.00
9875;DHT22;4976;46.786;7.632;2023-04-01T17:38:10;9.90;1.00
9875;DHT22;4976;46.786;7.632;2023-04-01T17:40:50;9.90;1.00
9875;DHT22;4976;46.786;7.632;2023-04-01T17:43:35;9.90;1.00
9875;DHT22;4976;46.786;7.632;2023-04-01T17:46:21;9.80;1.00
9875;DHT22;4976;46.786;7.632;2023-04-01T17:48:57;9.80;1.00
9875;DHT22;4976;46.786;7.632;2023-04-01T17:52:03;9.60;1.00
9875;DHT22;4976;46.786;7.632;2023-04-01T17:54:45;9.50;1.00
9875;DHT22;4976;46.786;7.632;2023-04-01T17:57:28;9.50;1.00
9875;DHT22;4976;46.786;7.632;2023-04-01T18:00:03;9.50;1.00
9875;DHT22;4976;46.786;7.632;2023-04-01T18:02:45;9.30;1.00
9875;DHT22;4976;46.786;7.632;2023-04-01T18:05:24;9.10;1.00
9875;DHT22;4976;46.786;7.632;2023-04-01T18:10:58;8.80;1.00
9875;DHT22;4976;46.786;7.632;2023-04-01T18:13:51;8.70;11.70
9875;DHT22;4976;46.786;7.632;2023-04-01T18:16:38;8.60;1.00
9875;DHT22;4976;46.786;7.632;2023-04-01T18:19:14;8.60;14.80
9875;DHT22;4976;46.786;7.632;2023-04-01T18:21:46;8.50;13.90
9875;DHT22;4976;46.786;7.632;2023-04-01T18:24:21;8.40;94.40
9875;DHT22;4976;46.786;7.632;2023-04-01T18:26:50;8.40;99.90
9875;DHT22;4976;46.786;7.632;2023-04-01T18:29:36;8.30;99.90
9875;DHT22;4976;46.786;7.632;2023-04-01T18:32:15;8.20;99.90
9875;DHT22;4976;46.786;7.632;2023-04-01T18:34:53;8.30;99.90
9875;DHT22;4976;46.786;7.632;2023-04-01T18:37:32;8.20;99.90
9875;DHT22;4976;46.786;7.632;2023-04-01T18:40:12;8.30;99.90
9875;DHT22;4976;46.786;7.632;2023-04-01T18:45:35;8.40;99.90
9875;DHT22;4976;46.786;7.632;2023-04-01T18:48:16;8.30;99.90
9875;DHT22;4976;46.786;7.632;2023-04-01T18:50:54;8.30;99.90
9875;DHT22;4976;46.786;7.632;2023-04-01T18:53:38;8.20;99.90
9875;DHT22;4976;46.786;7.632;2023-04-01T18:56:10;8.20;99.90
9875;DHT22;4976;46.786;7.632;2023-04-01T18:58:48;8.30;99.90
9875;DHT22;4976;46.786;7.632;2023-04-01T19:01:24;8.30;99.90
9875;DHT22;4976;46.786;7.632;2023-04-01T19:04:05;8.40;99.90
9875;DHT22;4976;46.786;7.632;2023-04-01T19:06:44;8.40;99.90
9875;DHT22;4976;46.786;7.632;2023-04-01T19:09:24;8.40;99.90
9875;DHT22;4976;46.786;7.632;2023-04-01T19:12:06;8.50;99.90
9875;DHT22;4976;46.786;7.632;2023-04-01T19:17:54;8.40;99.90
9875;DHT22;4976;46.786;7.632;2023-04-01T19:20:26;8.30;99.90
9875;DHT22;4976;46.786;7.632;2023-04-01T19:23:22;8.30;99.90
9875;DHT22;4976;46.786;7.632;2023-04-01T19:25:55;8.30;99.90
9875;DHT22;4976;46.786;7.632;2023-04-01T19:28:38;8.30;99.90
9875;DHT22;4976;46.786;7.632;2023-04-01T19:31:27;8.30;99.90
9875;DHT22;4976;46.786;7.632;2023-04-01T19:34:15;8.20;99.90
9875;DHT22;4976;46.786;7.632;2023-04-01T19:36:50;8.30;99.90
9875;DHT22;4976;46.786;7.632;2023-04-01T19:39:33;8.30;99.90
9875;DHT22;4976;46.786;7.632;2023-04-01T19:42:19;8.30;99.90
9875;DHT22;4976;46.786;7.632;2023-04-01T19:45:02;8.30;99.90
9875;DHT22;4976;46.786;7.632;2023-04-01T19:48:04;8.20;99.90
9875;DHT22;4976;46.786;7.632;2023-04-01T19:50:54;8.30;99.90
9875;DHT22;4976;46.786;7.632;2023-04-01T19:53:28;8.30;99.90
9875;DHT22;4976;46.786;7.632;2023-04-01T19:56:03;8.20;99.90
9875;DHT22;4976;46.786;7.632;2023-04-01T19:58:36;8.20;99.90
9875;DHT22;4976;46.786;7.632;2023-04-01T20:01:15;8.20;99.90
9875;DHT22;4976;46.786;7.632;2023-04-01T20:03:47;8.20;99.90
9875;DHT22;4976;46.786;7.632;2023-04-01T20:06:26;8.20;99.90
9875;DHT22;4976;46.786;7.632;2023-04-01T20:09:23;8.10;99.90
9875;DHT22;4976;46.786;7.632;2023-04-01T20:11:59;8.10;1.00
9875;DHT22;4976;46.786;7.632;2023-04-01T20:14:38;8.10;1.00
9875;DHT22;4976;46.786;7.632;2023-04-01T20:17:17;8.00;99.90
9875;DHT22;4976;46.786;7.632;2023-04-01T20:19:54;7.90;1.00
9875;DHT22;4976;46.786;7.632;2023-04-01T20:22:35;7.80;1.00
9875;DHT22;4976;46.786;7.632;2023-04-01T20:25:11;7.70;1.00
9875;DHT22;4976;46.786;7.632;2023-04-01T20:27:55;7.60;99.90
9875;DHT22;4976;46.786;7.632;2023-04-01T20:30:43;7.60;1.00
9875;DHT22;4976;46.786;7.632;2023-04-01T20:33:37;7.50;1.00
9875;DHT22;4976;46.786;7.632;2023-04-01T20:36:16;7.50;99.90
9875;DHT22;4976;46.786;7.632;2023-04-01T20:39:18;7.50;99.90
9875;DHT22;4976;46.786;7.632;2023-04-01T20:42:14;7.50;99.90
9875;DHT22;4976;46.786;7.632;2023-04-01T20:44:46;7.40;1.00
9875;DHT22;4976;46.786;7.632;2023-04-01T20:47:29;7.30;26.80
9875;DHT22;4976;46.786;7.632;2023-04-01T20:50:01;7.20;99.90
9875;DHT22;4976;46.786;7.632;2023-04-01T20:52:41;7.20;99.90
9875;DHT22;4976;46.786;7.632;2023-04-01T20:55:47;7.20;99.90
9875;DHT22;4976;46.786;7.632;2023-04-01T20:58:25;7.10;99.90
9875;DHT22;4976;46.786;7.632;2023-04-01T21:01:01;7.10;99.90
9875;DHT22;4976;46.786;7.632;2023-04-01T21:03:41;7.20;99.90
9875;DHT22;4976;46.786;7.632;2023-04-01T21:06:35;7.20;99.90
9875;DHT22;4976;46.786;7.632;2023-04-01T21:09:22;7.10;99.90
9875;DHT22;4976;46.786;7.632;2023-04-01T21:11:56;7.00;99.90
9875;DHT22;4976;46.786;7.632;2023-04-01T21:14:48;6.90;99.90
9875;DHT22;4976;46.786;7.632;2023-04-01T21:17:32;7.10;99.90
9875;DHT22;4976;46.786;7.632;2023-04-01T21:20:15;7.20;99.90
9875;DHT22;4976;46.786;7.632;2023-04-01T21:23:08;7.10;1.00
9875;DHT22;4976;46.786;7.632;2023-04-01T21:25:58;7.10;1.00
9875;DHT22;4976;46.786;7.632;2023-04-01T21:28:38;7.10;99.90
9875;DHT22;4976;46.786;7.632;2023-04-01T21:31:19;7.30;59.50
9875;DHT22;4976;46.786;7.632;2023-04-01T21:34:04;7.30;99.90
9875;DHT22;4976;46.786;7.632;2023-04-01T21:36:49;7.30;35.40
9875;DHT22;4976;46.786;7.632;2023-04-01T21:39:32;7.30;99.90
9875;DHT22;4976;46.786;7.632;2023-04-01T21:42:22;7.30;99.90
9875;DHT22;4976;46.786;7.632;2023-04-01T21:45:09;7.30;5.00
9875;DHT22;4976;46.786;7.632;2023-04-01T21:54:32;7.00;99.90
